Time;durP1;ratioP1;P1;durP2;ratioP2;P2;SDS_P1;SDS_P2;PMS_P1;PMS_P2;Temp;Humidity;BMP_temperature;BMP_pressure;BME280_temperature;BME280_humidity;BME280_pressure;Samples;Min_cycle;Max_cycle;Signal;HPM_P1;HPM_P2
2022/05/19 00:01:42;;;;;;;7.32;3.47;;;;;;;17.54;100.00;96977.66;5049377;28;20063;-72
2022/05/19 00:04:07;;;;;;;7.32;3.15;;;;;;;17.53;100.00;96980.66;5053012;28;20067;-72
2022/05/19 00:06:33;;;;;;;10.60;3.72;;;;;;;17.45;100.00;96973.13;5048944;28;20032;-73
2022/05/19 00:08:58;;;;;;;5.90;3.30;;;;;;;17.52;100.00;96976.34;5047053;28;20044;-71
2022/05/19 00:11:28;;;;;;;6.25;3.00;;;;;;;17.48;100.00;96976.06;5050900;28;20045;-71
2022/05/19 00:13:54;;;;;;;11.68;3.67;;;;;;;17.44;100.00;96975.03;5049153;28;20792;-71
2022/05/19 00:16:20;;;;;;;8.57;3.70;;;;;;;17.48;100.00;96970.66;5047548;28;20361;-70
2022/05/19 00:18:45;;;;;;;7.25;3.80;;;;;;;17.54;100.00;96972.25;5049302;28;20046;-74
2022/05/19 00:21:11;;;;;;;12.20;2.97;;;;;;;17.47;100.00;96962.84;5049212;28;20037;-70
2022/05/19 00:23:36;;;;;;;7.03;3.47;;;;;;;17.47;100.00;96965.53;5065117;28;20033;-71
2022/05/19 00:26:02;;;;;;;6.72;3.80;;;;;;;17.36;100.00;96959.41;5045975;28;20049;-72
2022/05/19 00:28:28;;;;;;;8.93;3.88;;;;;;;17.27;100.00;96963.75;5046912;28;20051;-70
2022/05/19 00:30:54;;;;;;;5.55;3.60;;;;;;;17.31;100.00;96967.53;5047474;28;20052;-70
2022/05/19 00:33:19;;;;;;;5.32;3.58;;;;;;;17.21;100.00;96965.69;5048016;28;20070;-74
2022/05/19 00:35:45;;;;;;;7.63;3.80;;;;;;;17.23;100.00;96968.13;5047593;28;20606;-73
2022/05/19 00:38:10;;;;;;;8.57;3.72;;;;;;;17.12;100.00;96953.00;5048610;28;20546;-70
2022/05/19 00:40:36;;;;;;;9.30;3.97;;;;;;;17.10;100.00;96963.31;5047515;28;20163;-70
2022/05/19 00:43:03;;;;;;;9.55;3.88;;;;;;;17.00;100.00;96961.47;5048817;28;20052;-72
2022/05/19 00:45:41;;;;;;;6.57;3.70;;;;;;;16.93;100.00;96956.34;5048871;28;20502;-72
2022/05/19 00:48:22;;;;;;;7.07;4.05;;;;;;;16.91;100.00;96961.22;5046650;28;20734;-70
2022/05/19 00:51:02;;;;;;;6.95;3.83;;;;;;;16.91;100.00;96958.53;5048911;28;20080;-70
2022/05/19 00:53:35;;;;;;;6.90;3.67;;;;;;;16.82;100.00;96954.78;5048613;28;20055;-72
2022/05/19 00:56:05;;;;;;;9.57;4.00;;;;;;;16.77;100.00;96957.50;5049683;28;20048;-72
2022/05/19 00:58:47;;;;;;;8.10;3.88;;;;;;;16.72;100.00;96965.59;5052613;28;20183;-72
2022/05/19 01:01:14;;;;;;;8.45;4.43;;;;;;;16.69;100.00;96964.28;5046885;28;20045;-71
2022/05/19 01:03:47;;;;;;;6.55;3.47;;;;;;;16.64;100.00;96974.25;5047402;28;20047;-72
2022/05/19 01:06:17;;;;;;;8.87;3.83;;;;;;;16.60;100.00;96967.78;5048504;28;20412;-73
2022/05/19 01:08:48;;;;;;;8.23;4.13;;;;;;;16.54;100.00;96966.19;5046777;28;20453;-74
2022/05/19 01:11:15;;;;;;;12.48;4.47;;;;;;;16.44;100.00;96959.72;5049268;28;20488;-73
2022/05/19 01:13:42;;;;;;;9.35;4.15;;;;;;;16.40;100.00;96958.63;5048216;28;20423;-73
2022/05/19 01:16:09;;;;;;;9.85;4.10;;;;;;;16.46;100.00;96961.34;5048202;28;20041;-74
2022/05/19 01:18:36;;;;;;;7.95;4.30;;;;;;;16.46;100.00;96958.63;5048122;28;20095;-72
2022/05/19 01:21:03;;;;;;;8.07;4.68;;;;;;;16.47;100.00;96966.47;5047789;28;20094;-70
2022/05/19 01:23:48;;;;;;;9.45;3.97;;;;;;;16.44;100.00;96962.44;5048378;28;20028;-70
2022/05/19 01:26:47;;;;;;;6.45;3.90;;;;;;;16.39;100.00;96967.03;5049278;28;20503;-71
2022/05/19 01:29:15;;;;;;;6.47;3.80;;;;;;;16.29;100.00;96957.06;5045096;28;20036;-72
2022/05/19 01:31:54;;;;;;;10.68;4.32;;;;;;;16.29;100.00;96961.66;5052388;28;20505;-72
2022/05/19 01:34:23;;;;;;;8.25;4.20;;;;;;;16.16;100.00;96946.81;5044701;28;20040;-71
2022/05/19 01:36:49;;;;;;;9.75;4.85;;;;;;;16.14;100.00;96959.78;5047739;28;20036;-74
2022/05/19 01:39:23;;;;;;;7.82;3.85;;;;;;;16.21;100.00;96949.50;5047040;28;20045;-71
2022/05/19 01:42:07;;;;;;;7.40;3.67;;;;;;;16.32;100.00;96945.69;5053473;28;20045;-72
2022/05/19 01:44:56;;;;;;;8.35;3.47;;;;;;;16.43;100.00;96936.50;5046912;28;20048;-70
2022/05/19 01:47:52;;;;;;;7.13;4.10;;;;;;;16.54;100.00;96939.16;5046570;28;20504;-70
2022/05/19 01:50:38;;;;;;;7.55;4.22;;;;;;;16.58;100.00;96932.16;5044778;28;20345;-72
2022/05/19 01:53:21;;;;;;;7.47;3.63;;;;;;;16.57;100.00;96925.09;5046554;28;20147;-71
2022/05/19 01:56:11;;;;;;;7.38;3.72;;;;;;;16.57;100.00;96922.41;5047964;28;20109;-75
2022/05/19 01:58:37;;;;;;;9.23;4.60;;;;;;;16.54;100.00;96923.75;5046291;28;20068;-72
2022/05/19 02:01:05;;;;;;;8.20;3.78;;;;;;;16.51;100.00;96927.03;5045232;28;20171;-75
2022/05/19 02:03:32;;;;;;;8.73;3.80;;;;;;;16.51;100.00;96921.63;5045551;28;20047;-72
2022/05/19 02:06:25;;;;;;;7.13;4.10;;;;;;;16.46;100.00;96915.41;5046995;28;20041;-71
2022/05/19 02:08:57;;;;;;;8.57;4.10;;;;;;;16.36;100.00;96924.38;5045843;28;20040;-71
2022/05/19 02:11:29;;;;;;;9.50;4.10;;;;;;;16.24;100.00;96927.34;5050084;28;20044;-71
2022/05/19 02:13:59;;;;;;;10.93;4.28;;;;;;;16.14;100.00;96925.47;5044886;28;20482;-71
2022/05/19 02:16:24;;;;;;;7.85;4.32;;;;;;;16.15;100.00;96918.19;5048319;28;20345;-74
2022/05/19 02:18:51;;;;;;;7.32;3.65;;;;;;;16.08;100.00;96923.06;5044570;28;20483;-73
2022/05/19 02:21:20;;;;;;;7.20;4.22;;;;;;;16.06;100.00;96919.81;5046059;28;20413;-72
2022/05/19 02:23:47;;;;;;;8.40;4.07;;;;;;;16.03;100.00;96912.25;5048144;28;20098;-74
2022/05/19 02:26:12;;;;;;;6.95;4.18;;;;;;;16.06;100.00;96914.44;5046214;28;20045;-73
2022/05/19 02:28:47;;;;;;;8.25;4.15;;;;;;;16.03;100.00;96909.56;5044703;28;20118;-71
2022/05/19 02:31:13;;;;;;;9.30;4.20;;;;;;;16.00;100.00;96902.81;5046746;28;20045;-72
2022/05/19 02:33:38;;;;;;;11.25;4.40;;;;;;;15.99;100.00;96913.91;5047137;28;20568;-72
2022/05/19 02:36:05;;;;;;;7.90;4.28;;;;;;;15.97;100.00;96913.38;5046935;28;20132;-72
2022/05/19 02:38:31;;;;;;;9.18;4.05;;;;;;;15.93;100.00;96909.56;5046414;28;20068;-71
2022/05/19 02:40:57;;;;;;;8.68;4.55;;;;;;;15.94;100.00;96916.59;5047970;28;20059;-72
2022/05/19 02:43:22;;;;;;;8.20;4.30;;;;;;;15.87;100.00;96912.31;5043479;28;20040;-73
2022/05/19 02:45:48;;;;;;;8.32;4.25;;;;;;;15.85;100.00;96909.03;5047275;28;20051;-72
2022/05/19 02:48:15;;;;;;;7.13;4.32;;;;;;;15.84;100.00;96907.44;5046571;28;20053;-72
2022/05/19 02:50:42;;;;;;;9.20;4.50;;;;;;;15.83;100.00;96905.81;5045166;28;20145;-71
2022/05/19 02:53:10;;;;;;;10.93;4.63;;;;;;;15.78;100.00;96903.09;5046697;28;20128;-74
2022/05/19 02:55:36;;;;;;;8.40;4.30;;;;;;;15.79;100.00;96906.63;5048699;28;20041;-72
2022/05/19 02:58:06;;;;;;;6.70;4.28;;;;;;;15.83;100.00;96900.41;5047520;28;20366;-73
2022/05/19 03:00:32;;;;;;;11.90;4.35;;;;;;;15.85;100.00;96909.03;5043345;28;20445;-71
2022/05/19 03:02:58;;;;;;;9.45;4.55;;;;;;;15.80;100.00;96906.38;5052373;28;20041;-72
2022/05/19 03:05:26;;;;;;;7.63;4.55;;;;;;;15.81;100.00;96912.56;5044557;28;20400;-71
2022/05/19 03:07:52;;;;;;;11.13;4.30;;;;;;;15.81;100.00;96904.47;5044546;28;20048;-72
2022/05/19 03:10:18;;;;;;;8.65;4.82;;;;;;;15.72;100.00;96908.78;5047166;28;20045;-75
2022/05/19 03:12:43;;;;;;;9.70;4.13;;;;;;;15.74;100.00;96907.44;5048871;28;20042;-71
2022/05/19 03:15:10;;;;;;;8.32;4.05;;;;;;;15.74;100.00;96906.63;5043329;28;20339;-70
2022/05/19 03:17:36;;;;;;;9.57;4.22;;;;;;;15.81;100.00;96896.38;5046431;28;20076;-70
2022/05/19 03:20:03;;;;;;;7.88;4.80;;;;;;;15.90;100.00;96905.53;5044543;28;20137;-72
2022/05/19 03:22:29;;;;;;;8.75;3.80;;;;;;;15.97;100.00;96895.28;5044376;28;20041;-71
2022/05/19 03:24:54;;;;;;;10.95;4.47;;;;;;;16.01;100.00;96892.84;5045469;28;20569;-72
2022/05/19 03:27:21;;;;;;;6.65;4.00;;;;;;;16.05;100.00;96897.44;5045388;28;20064;-70
2022/05/19 03:29:48;;;;;;;9.15;4.25;;;;;;;16.06;100.00;96909.84;5045893;28;20047;-72
2022/05/19 03:32:13;;;;;;;6.57;4.25;;;;;;;16.04;100.00;96900.41;5043208;28;20052;-74
2022/05/19 03:34:39;;;;;;;10.38;4.20;;;;;;;16.02;100.00;96903.34;5045002;28;20029;-72
2022/05/19 03:37:06;;;;;;;10.93;4.75;;;;;;;16.05;100.00;96907.41;5044290;28;20103;-74
2022/05/19 03:39:33;;;;;;;8.55;4.07;;;;;;;16.08;100.00;96914.97;5046815;28;20029;-70
2022/05/19 03:41:59;;;;;;;8.25;4.07;;;;;;;16.06;100.00;96914.44;5047697;28;20143;-70
2022/05/19 03:44:25;;;;;;;6.45;3.72;;;;;;;15.99;100.00;96905.81;5046104;28;20044;-71
2022/05/19 03:46:50;;;;;;;8.23;4.10;;;;;;;16.05;100.00;96902.03;5045343;28;20474;-74
2022/05/19 03:49:16;;;;;;;6.18;4.13;;;;;;;16.04;100.00;96903.09;5043044;28;20032;-71
2022/05/19 03:51:42;;;;;;;6.82;3.97;;;;;;;16.05;100.00;96899.31;5045268;28;20051;-71
2022/05/19 03:54:08;;;;;;;6.63;3.67;;;;;;;16.05;100.00;96902.81;5044146;28;20029;-72
2022/05/19 03:56:35;;;;;;;12.80;4.20;;;;;;;16.03;100.00;96907.69;5047228;28;20032;-73
2022/05/19 03:59:01;;;;;;;6.70;3.53;;;;;;;16.01;100.00;96907.13;5045662;28;20109;-70
2022/05/19 04:01:27;;;;;;;10.18;4.50;;;;;;;16.04;100.00;96911.19;5048880;28;20423;-75
2022/05/19 04:03:54;;;;;;;8.55;3.70;;;;;;;16.06;100.00;96914.44;5049126;28;20185;-71
2022/05/19 04:06:23;;;;;;;7.68;3.97;;;;;;;16.07;100.00;96922.25;5048391;28;20048;-73
2022/05/19 04:08:49;;;;;;;9.07;3.85;;;;;;;16.02;100.00;96918.75;5048180;28;20041;-74
2022/05/19 04:11:15;;;;;;;11.45;4.65;;;;;;;15.98;100.00;96915.78;5048079;28;20106;-71
2022/05/19 04:13:41;;;;;;;5.35;3.83;;;;;;;15.94;100.00;96920.09;5049424;28;20514;-71
2022/05/19 04:16:07;;;;;;;6.78;4.00;;;;;;;15.92;100.00;96929.56;5048814;28;20048;-71
2022/05/19 04:18:34;;;;;;;8.32;4.15;;;;;;;15.93;100.00;96920.38;5047606;28;20044;-70
2022/05/19 04:20:59;;;;;;;9.63;4.25;;;;;;;15.93;100.00;96918.47;5048231;28;20094;-70
2022/05/19 04:23:25;;;;;;;6.10;3.65;;;;;;;15.94;100.00;96916.59;5049308;28;20039;-74
2022/05/19 04:25:50;;;;;;;9.00;4.03;;;;;;;15.88;100.00;96919.31;5049658;28;20032;-71
2022/05/19 04:28:18;;;;;;;8.80;4.22;;;;;;;15.92;100.00;96918.75;5049592;28;20067;-72
2022/05/19 04:30:45;;;;;;;7.05;3.88;;;;;;;16.02;100.00;96916.03;5047587;28;21988;-71
2022/05/19 04:33:11;;;;;;;8.95;4.40;;;;;;;16.01;100.00;96927.91;5047835;28;20339;-71
2022/05/19 04:35:37;;;;;;;12.13;4.40;;;;;;;15.96;100.00;96927.94;5046591;28;20124;-71
2022/05/19 04:38:11;;;;;;;6.70;4.00;;;;;;;15.95;100.00;96916.31;5049475;28;20311;-72
2022/05/19 04:40:39;;;;;;;9.27;3.88;;;;;;;15.97;100.00;96926.88;5048509;28;20042;-71
2022/05/19 04:43:05;;;;;;;8.15;3.95;;;;;;;16.02;100.00;96914.16;5052055;28;20068;-72
2022/05/19 04:45:31;;;;;;;7.43;3.72;;;;;;;16.04;100.00;96911.19;5048361;28;21131;-71
2022/05/19 04:47:56;;;;;;;6.75;3.63;;;;;;;16.14;100.00;96908.47;5050590;28;20047;-74
2022/05/19 04:50:22;;;;;;;11.32;4.90;;;;;;;16.16;100.00;96909.81;5044853;28;20400;-75
2022/05/19 04:52:47;;;;;;;8.55;4.03;;;;;;;16.23;100.00;96908.72;5050007;28;20412;-73
2022/05/19 04:55:13;;;;;;;11.15;4.10;;;;;;;16.26;100.00;96900.06;5049818;28;20043;-73
2022/05/19 04:57:41;;;;;;;8.38;3.80;;;;;;;16.29;100.00;96899.53;5048793;28;20033;-71
2022/05/19 05:00:08;;;;;;;6.70;3.40;;;;;;;16.33;100.00;96906.81;5047686;28;20068;-70
2022/05/19 05:02:34;;;;;;;6.70;3.63;;;;;;;16.37;100.00;96899.78;5028628;28;20052;-72
2022/05/19 05:05:04;;;;;;;5.95;3.38;;;;;;;16.42;100.00;96890.88;5028334;28;20131;-73
2022/05/19 05:07:29;;;;;;;6.22;3.47;;;;;;;16.54;100.00;96901.34;5027233;28;20412;-70
2022/05/19 05:09:55;;;;;;;4.68;3.40;;;;;;;16.62;100.00;96906.19;5030437;28;20048;-74
2022/05/19 05:12:20;;;;;;;10.68;3.67;;;;;;;16.64;100.00;96907.50;5030816;28;20038;-71
2022/05/19 05:14:46;;;;;;;7.18;3.50;;;;;;;16.67;100.00;96914.28;5044799;28;20116;-74
2022/05/19 05:17:11;;;;;;;5.38;3.50;;;;;;;16.61;100.00;96916.19;5028063;28;20117;-72
2022/05/19 05:19:37;;;;;;;8.68;3.95;;;;;;;16.69;100.00;96907.53;5029989;28;20051;-71
2022/05/19 05:22:03;;;;;;;8.13;4.10;;;;;;;16.75;100.00;96916.44;5029025;28;20045;-71
2022/05/19 05:24:28;;;;;;;8.07;3.88;;;;;;;16.73;100.00;96918.63;5035365;28;20099;-73
2022/05/19 05:26:54;;;;;;;9.00;4.18;;;;;;;16.72;100.00;96916.97;5029312;28;20467;-70
2022/05/19 05:29:20;;;;;;;6.43;3.60;;;;;;;16.78;100.00;96923.16;5032139;28;20037;-70
2022/05/19 05:31:46;;;;;;;9.13;3.50;;;;;;;16.83;100.00;96918.56;5038970;28;20048;-73
2022/05/19 05:34:12;;;;;;;16.95;4.90;;;;;;;16.92;100.00;96922.28;5045177;28;20040;-70
2022/05/19 05:36:37;;;;;;;8.35;3.70;;;;;;;17.05;100.00;96922.78;5047803;28;20492;-72
2022/05/19 05:39:03;;;;;;;6.55;3.72;;;;;;;17.13;100.00;96935.72;5044839;28;20048;-73
2022/05/19 05:41:29;;;;;;;9.68;3.95;;;;;;;17.18;100.00;96930.28;5053958;28;20490;-71
2022/05/19 05:43:54;;;;;;;8.20;3.80;;;;;;;17.30;100.00;96943.47;5046918;28;20040;-70
2022/05/19 05:46:20;;;;;;;7.47;3.65;;;;;;;17.40;100.00;96943.41;5047597;28;20359;-70
2022/05/19 05:48:48;;;;;;;11.15;3.88;;;;;;;17.45;100.00;96946.88;5044713;28;20460;-72
2022/05/19 05:51:16;;;;;;;8.07;3.83;;;;;;;17.55;100.00;96948.72;5047631;28;20076;-73
2022/05/19 05:53:43;;;;;;;5.97;3.58;;;;;;;17.64;100.00;96954.34;5047424;28;20044;-70
2022/05/19 05:56:12;;;;;;;9.68;4.35;;;;;;;17.64;100.00;96960.56;5047850;28;20028;-71
2022/05/19 05:58:38;;;;;;;10.73;3.92;;;;;;;17.72;100.00;96956.47;5045521;28;20041;-70
2022/05/19 06:01:06;;;;;;;8.07;3.50;;;;;;;17.78;100.00;96955.34;5045306;28;20048;-70
2022/05/19 06:03:32;;;;;;;7.90;3.70;;;;;;;17.88;100.00;96949.03;5060779;28;20404;-72
2022/05/19 06:05:59;;;;;;;6.72;3.65;;;;;;;17.89;100.00;96950.66;5046191;28;20051;-73
2022/05/19 06:08:27;;;;;;;6.20;3.03;;;;;;;17.89;100.00;96962.28;5046268;28;20467;-70
2022/05/19 06:10:53;;;;;;;12.68;4.13;;;;;;;17.99;100.00;96951.41;5048414;28;20148;-70
2022/05/19 06:13:18;;;;;;;9.48;3.80;;;;;;;18.02;100.00;96942.69;5047270;28;20039;-74
2022/05/19 06:15:44;;;;;;;7.40;3.92;;;;;;;17.97;100.00;96945.44;5047053;28;20140;-71
2022/05/19 06:18:11;;;;;;;10.63;3.38;;;;;;;17.99;100.00;96950.59;5046870;28;20527;-71
2022/05/19 06:20:38;;;;;;;6.05;3.45;;;;;;;18.00;100.00;96947.59;5046374;28;20075;-71
2022/05/19 06:23:04;;;;;;;6.35;3.67;;;;;;;18.08;100.00;96938.84;5048484;28;20048;-71
2022/05/19 06:25:30;;;;;;;10.93;3.67;;;;;;;18.08;100.00;96936.16;5046373;28;20032;-70
2022/05/19 06:27:56;;;;;;;7.20;3.60;;;;;;;18.10;100.00;96936.66;5046265;28;20519;-71
2022/05/19 06:30:23;;;;;;;8.38;3.42;;;;;;;18.16;100.00;96933.91;5046913;28;20577;-70
2022/05/19 06:32:49;;;;;;;7.82;3.63;;;;;;;18.18;100.00;96921.69;5045962;28;20028;-71
2022/05/19 06:35:20;;;;;;;5.93;3.58;;;;;;;18.22;100.00;96927.38;5045041;28;20506;-70
2022/05/19 06:37:46;;;;;;;4.38;2.28;;;;;;;18.25;100.00;96924.06;5050296;28;20037;-70
2022/05/19 06:40:16;;;;;;;5.50;2.90;;;;;;;18.28;100.00;96909.94;5046786;28;20040;-70
2022/05/19 06:42:44;;;;;;;6.13;3.33;;;;;;;18.30;100.00;96919.41;5048457;28;21052;-71
2022/05/19 06:45:13;;;;;;;6.03;3.55;;;;;;;18.35;100.00;96916.63;5047371;28;20561;-70
2022/05/19 06:47:38;;;;;;;6.45;3.55;;;;;;;18.39;100.00;96919.59;5049729;28;20430;-70
2022/05/19 06:50:08;;;;;;;6.65;2.92;;;;;;;18.39;100.00;96916.88;5044606;28;20096;-73
2022/05/19 06:52:42;;;;;;;9.18;3.38;;;;;;;18.44;100.00;96918.72;5052075;28;20691;-70
2022/05/19 06:55:09;;;;;;;7.20;3.30;;;;;;;18.45;100.00;96912.22;5043644;28;20183;-71
2022/05/19 06:57:35;;;;;;;6.72;2.72;;;;;;;18.51;100.00;96914.56;5045734;28;20029;-71
2022/05/19 07:00:01;;;;;;;5.65;3.00;;;;;;;18.63;100.00;96912.28;5046856;28;20041;-71
2022/05/19 07:02:27;;;;;;;10.32;3.38;;;;;;;18.62;100.00;96915.28;5049535;28;20032;-70
2022/05/19 07:04:53;;;;;;;5.05;3.25;;;;;;;18.63;100.00;96906.84;5048189;28;20037;-72
2022/05/19 07:07:18;;;;;;;5.60;3.00;;;;;;;18.70;100.00;96903.03;5046459;28;20094;-71
2022/05/19 07:09:44;;;;;;;6.80;3.05;;;;;;;18.74;100.00;96895.91;5046524;28;20045;-71
2022/05/19 07:12:12;;;;;;;5.22;3.03;;;;;;;18.69;100.00;96904.13;5045846;28;20033;-70
2022/05/19 07:14:38;;;;;;;7.78;3.30;;;;;;;18.82;100.00;96900.69;5047015;28;20036;-72
2022/05/19 07:17:05;;;;;;;5.10;2.75;;;;;;;18.94;100.00;96920.06;5048410;28;20041;-73
2022/05/19 07:22:19;;;;;;;7.25;3.33;;;;;;;19.09;100.00;96906.31;5044198;28;20500;-72
2022/05/19 07:24:46;;;;;;;6.00;3.08;;;;;;;19.24;100.00;96904.50;5045340;28;20044;-72
2022/05/19 07:27:13;;;;;;;5.40;2.80;;;;;;;19.38;100.00;96902.66;5045726;28;20045;-72
2022/05/19 07:29:39;;;;;;;11.70;4.70;;;;;;;19.54;100.00;96898.63;5045089;28;20095;-72
2022/05/19 07:32:06;;;;;;;4.78;2.67;;;;;;;19.53;100.00;96907.84;5045461;28;20054;-73
2022/05/19 07:34:33;;;;;;;7.78;2.83;;;;;;;19.52;100.00;96900.00;5045468;28;20048;-74
2022/05/19 07:36:59;;;;;;;6.03;2.67;;;;;;;19.62;100.00;96910.75;5048991;28;20048;-72
2022/05/19 07:39:25;;;;;;;7.32;2.80;;;;;;;19.80;100.00;96920.75;5049449;28;20113;-73
2022/05/19 07:41:55;;;;;;;4.53;2.70;;;;;;;19.73;100.00;96921.13;5048700;28;20690;-73
2022/05/19 07:44:21;;;;;;;5.82;2.90;;;;;;;19.88;100.00;96919.28;5051665;28;20356;-72
2022/05/19 07:46:48;;;;;;;5.72;2.47;;;;;;;19.98;100.00;96914.47;5049680;28;20573;-72
2022/05/19 07:49:14;;;;;;;6.43;2.65;;;;;;;20.24;100.00;96906.69;5015074;28;20120;-72
2022/05/19 07:51:41;;;;;;;6.05;2.47;;;;;;;20.25;100.00;96902.88;5049190;28;20578;-72
2022/05/19 07:54:10;;;;;;;3.95;1.73;;;;;;;20.18;94.55;96897.03;5048535;28;20040;-72
2022/05/19 07:56:37;;;;;;;7.28;2.60;;;;;;;20.29;94.68;96897.63;5048913;28;20045;-73
2022/05/19 07:59:04;;;;;;;7.80;2.28;;;;;;;20.34;96.28;96894.03;5045631;28;20041;-73
2022/05/19 08:01:31;;;;;;;6.28;2.17;;;;;;;20.45;96.41;96898.19;5046916;28;20392;-73
2022/05/19 08:03:58;;;;;;;4.40;2.33;;;;;;;20.52;91.60;96898.59;5046055;28;20037;-72
2022/05/19 08:06:24;;;;;;;8.55;2.88;;;;;;;20.63;94.61;96880.19;5054448;28;20033;-72
2022/05/19 08:08:50;;;;;;;5.57;2.42;;;;;;;20.64;96.70;96890.75;5046707;28;20041;-72
2022/05/19 08:11:15;;;;;;;4.97;2.28;;;;;;;20.73;92.59;96891.66;5048178;28;20532;-72
2022/05/19 08:16:25;;;;;;;9.02;2.88;;;;;;;20.95;89.60;96892.84;5048539;28;20149;-72
2022/05/19 08:18:50;;;;;;;4.38;2.33;;;;;;;21.07;92.14;96898.56;5045651;28;20139;-72
2022/05/19 08:21:16;;;;;;;6.60;2.38;;;;;;;21.01;89.25;96891.59;5049126;28;20637;-73
2022/05/19 08:23:45;;;;;;;5.05;2.42;;;;;;;21.24;93.77;96893.28;5046987;28;20106;-72
2022/05/19 08:26:11;;;;;;;7.53;2.47;;;;;;;21.38;89.75;96899.53;5050767;28;20069;-72
2022/05/19 08:28:41;;;;;;;6.25;2.55;;;;;;;21.24;90.91;96887.84;5044628;28;20048;-73
2022/05/19 08:31:13;;;;;;;6.70;2.92;;;;;;;21.24;90.84;96882.38;5045323;28;20057;-72
2022/05/19 08:33:41;;;;;;;8.60;2.38;;;;;;;21.31;89.03;96885.53;5049695;28;20041;-72
2022/05/19 08:36:08;;;;;;;9.38;2.47;;;;;;;21.35;88.84;96883.81;5046727;28;20451;-72
2022/05/19 08:38:35;;;;;;;5.72;1.77;;;;;;;21.04;88.21;96888.28;5048532;28;20071;-73
2022/05/19 08:41:03;;;;;;;4.15;2.33;;;;;;;20.93;91.90;96892.31;5050843;28;21078;-72
2022/05/19 08:43:54;;;;;;;5.35;2.20;;;;;;;20.96;92.49;96899.91;5047792;28;20067;-72
2022/05/19 08:46:23;;;;;;;7.25;2.00;;;;;;;20.81;92.48;96892.84;5042467;28;20045;-72
2022/05/19 08:48:53;;;;;;;3.92;2.00;;;;;;;20.85;90.09;96902.84;5047500;28;20036;-72
2022/05/19 08:51:24;;;;;;;4.97;2.60;;;;;;;20.91;92.39;96898.06;5046979;28;20515;-72
2022/05/19 08:53:50;;;;;;;4.38;2.92;;;;;;;20.96;94.63;96894.47;5047951;28;20049;-72
2022/05/19 08:56:25;;;;;;;5.78;2.47;;;;;;;21.06;93.52;96894.22;5047228;28;20045;-73
2022/05/19 08:59:21;;;;;;;3.88;2.70;;;;;;;21.19;93.08;96904.28;5049396;28;20036;-72
2022/05/19 09:01:53;;;;;;;9.45;2.53;;;;;;;21.29;91.64;96917.69;5047872;28;20052;-73
2022/05/19 09:04:40;;;;;;;6.72;2.10;;;;;;;21.25;90.56;96908.53;5047693;28;20115;-72
2022/05/19 09:10:29;;;;;;;5.30;2.47;;;;;;;21.85;91.37;96910.94;5047063;28;20245;-73
2022/05/19 09:13:16;;;;;;;4.65;2.53;;;;;;;21.98;92.39;96912.00;5047413;28;20041;-72
2022/05/19 09:15:44;;;;;;;5.00;2.47;;;;;;;21.93;94.36;96914.84;5047555;28;20083;-72
2022/05/19 09:18:14;;;;;;;6.10;3.10;;;;;;;22.42;93.30;96916.63;5048376;28;20038;-72
2022/05/19 09:21:06;;;;;;;5.07;2.42;;;;;;;22.10;89.26;96916.88;5046867;28;20037;-72
2022/05/19 09:23:36;;;;;;;5.15;2.35;;;;;;;22.58;94.08;96905.28;5044101;28;20492;-72
2022/05/19 09:26:18;;;;;;;6.43;2.83;;;;;;;22.66;92.22;96907.25;5051698;28;20110;-72
2022/05/19 09:28:45;;;;;;;4.90;2.40;;;;;;;22.86;91.17;96909.41;5044003;28;20054;-72
2022/05/19 09:31:12;;;;;;;6.75;2.60;;;;;;;22.92;89.29;96908.16;5045243;28;20052;-72
2022/05/19 09:33:44;;;;;;;5.38;2.83;;;;;;;22.96;91.29;96913.81;5044907;28;20499;-74
2022/05/19 09:36:13;;;;;;;7.22;2.85;;;;;;;22.76;91.73;96913.22;5047744;28;20043;-72
2022/05/19 09:38:46;;;;;;;5.93;2.72;;;;;;;22.69;92.04;96912.06;5061223;28;20360;-72
2022/05/19 09:41:32;;;;;;;8.10;2.97;;;;;;;22.90;92.71;96906.88;5046413;28;20178;-72
2022/05/19 09:43:58;;;;;;;5.32;2.90;;;;;;;22.92;90.80;96905.44;5046672;28;20044;-72
2022/05/19 09:46:36;;;;;;;5.97;3.30;;;;;;;22.88;93.17;96909.94;5043964;28;20064;-72
2022/05/19 09:49:05;;;;;;;7.05;3.10;;;;;;;22.58;92.53;96905.28;5046535;28;20044;-73
2022/05/19 09:51:39;;;;;;;8.10;3.20;;;;;;;22.61;94.27;96897.28;5046143;28;20190;-73
2022/05/19 09:54:04;;;;;;;6.63;3.08;;;;;;;22.80;94.19;96897.00;5051554;28;20033;-73
2022/05/19 09:56:48;;;;;;;5.13;3.17;;;;;;;23.03;95.47;96879.47;5047406;28;20158;-72
2022/05/19 09:59:32;;;;;;;6.32;3.15;;;;;;;23.30;92.75;96885.75;5045925;28;20086;-72
2022/05/19 10:02:06;;;;;;;6.18;3.28;;;;;;;23.47;94.05;96880.28;5047391;28;20136;-72
2022/05/19 10:04:39;;;;;;;5.25;2.55;;;;;;;23.25;90.46;96886.69;5047590;28;20079;-72
2022/05/19 10:07:22;;;;;;;7.13;3.08;;;;;;;23.00;91.39;96884.75;5048323;28;20037;-73
2022/05/19 10:09:51;;;;;;;10.25;3.10;;;;;;;23.10;92.40;96884.44;5045711;28;20033;-72
2022/05/19 10:12:25;;;;;;;9.73;3.30;;;;;;;23.53;91.16;96870.03;5053922;28;20051;-73
2022/05/19 10:15:00;;;;;;;5.28;3.13;;;;;;;23.67;89.65;96887.09;5046327;28;20049;-72
2022/05/19 10:17:43;;;;;;;5.85;2.58;;;;;;;23.56;88.06;96880.28;5046604;28;20044;-73
2022/05/19 10:20:18;;;;;;;5.30;2.90;;;;;;;23.46;87.63;96877.88;5049130;28;20036;-73
2022/05/19 10:23:04;;;;;;;6.18;2.83;;;;;;;23.46;89.25;96886.88;5051194;28;20130;-72
2022/05/19 10:25:48;;;;;;;4.95;2.90;;;;;;;24.00;90.45;96881.88;5044833;28;20041;-73
2022/05/19 10:31:40;;;;;;;7.72;3.00;;;;;;;23.86;87.64;96870.34;5045005;28;20060;-73
2022/05/19 10:34:30;;;;;;;7.85;3.00;;;;;;;23.96;87.58;96872.72;5047648;28;20037;-73
2022/05/19 10:37:11;;;;;;;9.43;3.65;;;;;;;24.11;88.49;96866.72;5048935;28;20041;-73
2022/05/19 10:40:04;;;;;;;8.50;2.78;;;;;;;24.16;89.25;96855.63;5047577;28;20381;-72
2022/05/19 10:42:40;;;;;;;7.90;2.47;;;;;;;24.16;86.83;96857.56;5045793;28;20036;-73
2022/05/19 10:45:18;;;;;;;9.43;3.50;;;;;;;24.37;88.91;96852.22;5045850;28;20147;-73
2022/05/19 10:48:06;;;;;;;7.10;3.47;;;;;;;24.51;87.98;96844.59;5046234;28;20067;-72
2022/05/19 10:50:45;;;;;;;8.73;3.13;;;;;;;24.41;89.61;96837.56;5046842;28;20060;-72
2022/05/19 10:53:16;;;;;;;20.83;4.35;;;;;;;24.74;89.03;96836.91;5047046;28;20138;-73
2022/05/19 10:55:44;;;;;;;9.27;3.88;;;;;;;24.90;88.42;96837.13;5043748;28;20435;-73
2022/05/19 10:58:12;;;;;;;5.25;3.20;;;;;;;25.54;86.73;96839.59;4694369;28;10000236;-72
2022/05/19 11:00:52;;;;;;;6.88;3.42;;;;;;;25.55;85.58;96839.25;4695389;28;10000290;-73
2022/05/19 11:03:32;;;;;;;10.75;3.38;;;;;;;25.30;88.54;96840.28;5043723;28;20360;-73
2022/05/19 11:06:17;;;;;;;8.27;3.40;;;;;;;25.52;87.24;96839.91;5046421;28;20056;-73
2022/05/19 11:08:59;;;;;;;9.05;2.63;;;;;;;25.19;85.56;96828.91;5043079;28;20083;-73
2022/05/19 11:11:43;;;;;;;8.27;3.30;;;;;;;25.00;88.19;96818.41;5047144;28;20098;-74
2022/05/19 11:14:44;;;;;;;7.93;3.10;;;;;;;25.20;89.69;96814.06;5047679;28;20115;-73
2022/05/19 11:17:35;;;;;;;5.53;3.17;;;;;;;25.02;88.32;96809.84;5047403;28;20091;-73
2022/05/19 11:20:12;;;;;;;6.00;2.90;;;;;;;24.42;87.64;96806.34;5046430;28;20076;-74
2022/05/19 11:22:40;;;;;;;15.90;3.05;;;;;;;24.37;88.13;96808.47;5049651;28;20041;-73
2022/05/19 11:28:05;;;;;;;6.13;2.80;;;;;;;24.50;88.35;96791.00;5049977;28;20128;-73
2022/05/19 11:30:37;;;;;;;8.40;2.30;;;;;;;24.58;87.68;96789.38;5048803;28;20044;-73
2022/05/19 11:33:07;;;;;;;6.38;2.95;;;;;;;24.87;88.05;96785.81;5048464;28;20459;-72
2022/05/19 11:35:46;;;;;;;5.40;2.78;;;;;;;25.09;83.91;96795.66;5049554;28;20106;-73
2022/05/19 11:38:22;;;;;;;5.95;2.80;;;;;;;24.95;84.51;96795.88;5051300;28;20455;-74
2022/05/19 11:41:11;;;;;;;5.10;3.05;;;;;;;25.32;87.96;96782.44;5047790;28;20032;-73
2022/05/19 11:43:51;;;;;;;11.60;3.35;;;;;;;24.91;85.01;96784.81;5047472;28;20032;-73
2022/05/19 11:46:29;;;;;;;5.30;2.88;;;;;;;24.13;86.39;96787.16;5055013;28;20044;-73
2022/05/19 11:55:19;;;;;;;6.15;3.20;;;;;;;25.01;86.53;96800.84;5032320;28;20056;-73
2022/05/19 11:58:09;;;;;;;8.52;2.85;;;;;;;26.40;79.38;96788.56;5047331;28;20040;-74
2022/05/19 12:00:40;;;;;;;6.55;3.47;;;;;;;28.37;69.67;96775.75;5046831;28;20144;-73
2022/05/19 12:03:17;;;;;;;5.65;3.05;;;;;;;29.42;56.44;96773.81;5047649;28;20341;-73